createdAt,value
2023-01-09T00:02:04.533Z,9.75
2023-01-09T00:04:31.468Z,9.68
2023-01-09T00:06:58.208Z,9.68
2023-01-09T00:09:25.194Z,9.55
2023-01-09T00:11:53.281Z,9.40
2023-01-09T00:14:19.810Z,9.43
2023-01-09T00:16:46.424Z,9.23
2023-01-09T00:19:12.904Z,9.82
2023-01-09T00:21:39.617Z,10.63
2023-01-09T00:24:06.541Z,9.93
2023-01-09T00:26:33.102Z,10.00
2023-01-09T00:28:59.595Z,9.32
2023-01-09T00:31:26.099Z,10.13
2023-01-09T00:33:55.591Z,9.63
2023-01-09T00:38:49.359Z,8.73
2023-01-09T00:41:17.998Z,9.35
2023-01-09T00:43:46.064Z,10.20
2023-01-09T00:46:16.436Z,9.35
2023-01-09T00:48:44.086Z,9.32
2023-01-09T00:51:10.609Z,8.65
2023-01-09T00:53:42.167Z,8.15
2023-01-09T00:56:10.183Z,7.75
2023-01-09T00:58:40.071Z,7.45
2023-01-09T01:01:06.631Z,7.03
2023-01-09T01:03:33.252Z,7.88
2023-01-09T01:06:18.602Z,7.35
2023-01-09T01:08:47.961Z,9.02
2023-01-09T01:11:17.390Z,9.10
2023-01-09T01:13:43.815Z,9.68
2023-01-09T01:16:13.702Z,9.63
2023-01-09T01:18:40.907Z,9.95
2023-01-09T01:21:11.858Z,10.77
2023-01-09T01:23:38.587Z,9.25
2023-01-09T01:26:06.379Z,9.25
2023-01-09T01:28:32.961Z,10.43
2023-01-09T01:30:59.508Z,10.05
2023-01-09T01:33:27.021Z,9.15
2023-01-09T01:36:07.676Z,9.23
2023-01-09T01:38:34.446Z,9.00
2023-01-09T01:41:04.686Z,9.15
2023-01-09T01:43:54.547Z,8.32
2023-01-09T01:46:21.062Z,8.65
2023-01-09T01:48:48.730Z,8.45
2023-01-09T01:51:17.097Z,7.90
2023-01-09T01:53:47.827Z,8.82
2023-01-09T01:56:14.216Z,7.50
2023-01-09T01:58:46.770Z,6.80
2023-01-09T02:01:14.072Z,7.68
2023-01-09T02:03:44.340Z,7.50
2023-01-09T02:06:12.863Z,7.43
2023-01-09T02:08:39.393Z,7.75
2023-01-09T02:11:06.081Z,7.50
2023-01-09T02:13:33.691Z,8.60
2023-01-09T02:16:21.004Z,8.15
2023-01-09T02:18:51.327Z,7.80
2023-01-09T02:21:27.918Z,9.02
2023-01-09T02:24:00.642Z,8.77
2023-01-09T02:26:48.585Z,9.93
2023-01-09T02:29:34.303Z,9.73
2023-01-09T02:32:19.217Z,9.55
2023-01-09T02:34:57.971Z,9.55
2023-01-09T02:37:35.876Z,10.82
2023-01-09T02:40:15.134Z,11.45
2023-01-09T02:42:42.044Z,11.40
2023-01-09T02:45:08.685Z,10.43
2023-01-09T02:47:43.363Z,11.07
2023-01-09T02:50:31.584Z,11.40
2023-01-09T02:53:27.740Z,10.40
2023-01-09T02:55:56.348Z,10.98
2023-01-09T02:58:39.005Z,11.90
2023-01-09T03:01:08.700Z,11.57
2023-01-09T03:03:40.939Z,11.63
2023-01-09T03:06:13.708Z,11.63
2023-01-09T03:08:41.843Z,11.10
2023-01-09T03:11:12.792Z,12.18
2023-01-09T03:13:47.154Z,10.88
2023-01-09T03:16:16.101Z,12.15
2023-01-09T03:18:45.814Z,11.38
2023-01-09T03:21:13.431Z,11.43
2023-01-09T03:23:46.761Z,11.85
2023-01-09T03:26:13.221Z,11.27
2023-01-09T03:28:39.666Z,10.48
2023-01-09T03:31:06.215Z,11.80
2023-01-09T03:33:32.744Z,11.70
2023-01-09T03:35:59.356Z,11.32
2023-01-09T03:38:25.932Z,11.85
2023-01-09T03:40:52.653Z,11.23
2023-01-09T03:43:22.070Z,11.85
2023-01-09T03:45:49.757Z,11.30
2023-01-09T03:48:16.277Z,10.38
2023-01-09T03:50:46.202Z,11.98
2023-01-09T03:53:16.450Z,10.95
2023-01-09T03:55:46.757Z,11.43
2023-01-09T03:58:13.983Z,11.00
2023-01-09T04:00:43.084Z,11.18
2023-01-09T04:03:09.838Z,11.30
2023-01-09T04:05:36.428Z,10.70
2023-01-09T04:08:02.996Z,11.70
2023-01-09T04:10:29.607Z,11.73
2023-01-09T04:12:56.053Z,10.63
2023-01-09T04:15:24.200Z,10.30
2023-01-09T04:17:50.807Z,11.25
2023-01-09T04:20:18.226Z,10.95
2023-01-09T04:23:06.363Z,10.82
2023-01-09T04:25:32.909Z,11.98
2023-01-09T04:27:59.395Z,10.48
2023-01-09T04:30:28.575Z,10.30
2023-01-09T04:32:55.052Z,10.57
2023-01-09T04:35:21.641Z,10.15
2023-01-09T04:37:48.363Z,10.50
2023-01-09T04:40:15.096Z,10.38
2023-01-09T04:42:42.228Z,10.23
2023-01-09T04:45:10.036Z,10.68
2023-01-09T04:47:37.097Z,10.00
2023-01-09T04:50:06.642Z,9.32
2023-01-09T04:54:59.432Z,9.88
2023-01-09T04:57:25.827Z,9.00
2023-01-09T04:59:54.177Z,10.10
2023-01-09T05:02:20.828Z,10.45
2023-01-09T05:04:48.426Z,9.40
2023-01-09T05:07:15.200Z,9.02
2023-01-09T05:09:44.525Z,10.40
2023-01-09T05:12:13.322Z,9.75
2023-01-09T05:14:39.922Z,9.98
2023-01-09T05:17:08.758Z,9.45
2023-01-09T05:19:35.146Z,9.43
2023-01-09T05:22:04.346Z,10.02
2023-01-09T05:24:30.883Z,9.63
2023-01-09T05:26:57.341Z,9.60
2023-01-09T05:29:23.803Z,10.40
2023-01-09T05:31:50.419Z,8.63
2023-01-09T05:34:17.136Z,9.40
2023-01-09T05:36:43.632Z,9.30
2023-01-09T05:39:11.218Z,9.50
2023-01-09T05:41:38.161Z,9.23
2023-01-09T05:44:05.655Z,10.10
2023-01-09T05:46:32.437Z,9.25
2023-01-09T05:48:58.875Z,9.68
2023-01-09T05:51:26.180Z,9.13
2023-01-09T05:53:52.634Z,9.20
2023-01-09T05:56:19.301Z,9.50
2023-01-09T05:58:45.818Z,9.18
2023-01-09T06:01:12.252Z,8.68
2023-01-09T06:03:38.695Z,10.00
2023-01-09T06:06:05.284Z,9.30
2023-01-09T06:08:32.444Z,9.50
2023-01-09T06:10:59.090Z,10.07
2023-01-09T06:13:25.619Z,9.70
2023-01-09T06:15:52.487Z,9.65
2023-01-09T06:18:19.584Z,10.05
2023-01-09T06:20:46.552Z,10.57
2023-01-09T06:23:13.700Z,10.43
2023-01-09T06:25:40.729Z,10.48
2023-01-09T06:28:07.477Z,9.75
2023-01-09T06:30:34.294Z,10.40
2023-01-09T06:33:00.901Z,10.40
2023-01-09T06:35:31.205Z,10.07
2023-01-09T06:37:58.520Z,9.60
2023-01-09T06:40:25.208Z,10.82
2023-01-09T06:42:51.715Z,9.90
2023-01-09T06:45:18.550Z,9.95
2023-01-09T06:47:45.337Z,9.57
2023-01-09T06:50:12.130Z,9.57
2023-01-09T06:52:39.457Z,10.60
2023-01-09T06:55:06.484Z,10.60
2023-01-09T06:57:33.264Z,9.70
2023-01-09T06:59:59.759Z,10.52
2023-01-09T07:02:26.980Z,10.18
2023-01-09T07:04:53.635Z,10.60
2023-01-09T07:07:22.586Z,10.70
2023-01-09T07:09:49.247Z,10.52
2023-01-09T07:12:15.728Z,10.65
2023-01-09T07:14:46.162Z,10.85
2023-01-09T07:17:13.755Z,10.05
2023-01-09T07:19:40.304Z,10.63
2023-01-09T07:22:07.031Z,10.95
2023-01-09T07:24:33.521Z,10.20
2023-01-09T07:27:00.110Z,10.98
2023-01-09T07:29:26.783Z,10.43
2023-01-09T07:31:53.190Z,10.73
2023-01-09T07:34:22.795Z,9.80
2023-01-09T07:36:54.225Z,9.00
2023-01-09T07:39:20.809Z,8.90
2023-01-09T07:41:48.351Z,9.38
2023-01-09T07:44:15.530Z,8.05
2023-01-09T07:46:42.024Z,8.60
2023-01-09T07:49:09.105Z,7.20
2023-01-09T07:51:35.997Z,6.57
2023-01-09T07:54:03.096Z,8.18
2023-01-09T07:56:29.619Z,6.57
2023-01-09T07:58:56.174Z,7.95
2023-01-09T08:01:23.599Z,7.72
2023-01-09T08:03:51.082Z,7.47
2023-01-09T08:06:17.641Z,6.68
2023-01-09T08:08:44.146Z,6.88
2023-01-09T08:11:10.644Z,6.82
2023-01-09T08:13:37.102Z,6.70
2023-01-09T08:16:03.699Z,7.30
2023-01-09T08:18:30.193Z,7.22
2023-01-09T08:20:56.912Z,7.57
2023-01-09T08:23:24.966Z,7.20
2023-01-09T08:25:53.427Z,8.23
2023-01-09T08:28:20.765Z,7.10
2023-01-09T08:30:48.074Z,6.90
2023-01-09T08:33:14.813Z,6.70
2023-01-09T08:35:42.956Z,7.03
2023-01-09T08:38:09.517Z,7.13
2023-01-09T08:40:36.094Z,7.13
2023-01-09T08:43:21.213Z,7.30
2023-01-09T08:46:06.343Z,6.88
2023-01-09T08:48:32.854Z,7.03
2023-01-09T08:50:59.586Z,7.07
2023-01-09T08:53:26.127Z,7.15
2023-01-09T08:55:53.071Z,7.88
2023-01-09T08:58:20.113Z,6.45
2023-01-09T09:00:48.353Z,7.45
2023-01-09T09:03:15.038Z,7.78
2023-01-09T09:05:41.513Z,8.13
2023-01-09T09:08:09.137Z,7.85
2023-01-09T09:10:35.805Z,8.55
2023-01-09T09:13:02.483Z,8.70
2023-01-09T09:15:29.059Z,8.57
2023-01-09T09:17:59.909Z,7.90
2023-01-09T09:20:28.368Z,7.40
2023-01-09T09:22:54.922Z,8.02
2023-01-09T09:25:21.901Z,7.95
2023-01-09T09:27:48.481Z,7.97
2023-01-09T09:30:16.228Z,8.32
2023-01-09T09:32:45.666Z,8.30
2023-01-09T09:35:12.616Z,8.25
2023-01-09T09:37:39.426Z,8.57
2023-01-09T09:40:18.074Z,7.88
2023-01-09T09:43:22.252Z,7.53
2023-01-09T09:45:59.158Z,8.18
2023-01-09T09:48:25.717Z,8.13
2023-01-09T09:51:07.255Z,8.73
2023-01-09T09:53:59.977Z,8.77
2023-01-09T09:56:27.394Z,8.75
2023-01-09T09:58:53.775Z,8.85
2023-01-09T10:01:24.042Z,9.27
2023-01-09T10:03:52.277Z,9.95
2023-01-09T10:06:35.225Z,9.15
2023-01-09T10:09:03.012Z,10.55
2023-01-09T10:11:36.876Z,10.80
2023-01-09T10:14:08.398Z,10.23
2023-01-09T10:16:55.033Z,10.60
2023-01-09T10:19:22.559Z,11.23
2023-01-09T10:22:07.891Z,9.80
2023-01-09T10:24:37.714Z,10.95
2023-01-09T10:27:13.648Z,10.02
2023-01-09T10:30:03.359Z,11.02
2023-01-09T10:32:33.017Z,10.50
2023-01-09T10:37:34.579Z,9.82
2023-01-09T10:40:05.481Z,10.82
2023-01-09T10:42:58.351Z,9.70
2023-01-09T10:45:27.873Z,8.75
2023-01-09T10:50:21.143Z,8.20
2023-01-09T10:52:52.011Z,9.52
2023-01-09T10:55:23.297Z,7.45
2023-01-09T10:57:53.221Z,8.00
2023-01-09T11:00:23.373Z,8.07
2023-01-09T11:02:50.734Z,7.65
2023-01-09T11:05:28.428Z,8.52
2023-01-09T11:08:05.165Z,7.47
2023-01-09T11:10:46.706Z,6.72
2023-01-09T11:13:18.131Z,7.25
2023-01-09T11:16:05.080Z,6.30
2023-01-09T11:18:32.897Z,6.43
2023-01-09T11:21:32.088Z,6.60
2023-01-09T11:24:17.252Z,6.57
2023-01-09T11:26:43.851Z,6.25
2023-01-09T11:29:18.117Z,6.80
2023-01-09T11:31:57.118Z,6.88
2023-01-09T11:34:28.812Z,7.15
2023-01-09T11:37:02.044Z,7.18
2023-01-09T11:39:34.119Z,6.68
2023-01-09T11:42:05.017Z,7.30
2023-01-09T11:44:32.417Z,7.22
2023-01-09T11:46:59.469Z,7.60
2023-01-09T11:49:30.685Z,7.13
2023-01-09T11:52:16.710Z,7.05
2023-01-09T11:54:49.306Z,7.22
2023-01-09T11:57:15.976Z,7.57
2023-01-09T11:59:45.036Z,7.20
2023-01-09T12:02:29.934Z,6.47
2023-01-09T12:04:58.741Z,7.72
2023-01-09T12:07:31.352Z,6.70
2023-01-09T12:10:06.839Z,7.40
2023-01-09T12:12:33.296Z,8.05
2023-01-09T12:15:35.926Z,6.97
2023-01-09T12:18:12.142Z,6.68
2023-01-09T12:21:05.276Z,7.60
2023-01-09T12:23:34.670Z,8.55
2023-01-09T12:26:18.826Z,8.68
2023-01-09T12:28:51.353Z,9.85
2023-01-09T12:31:21.133Z,9.27
2023-01-09T12:33:53.626Z,9.05
2023-01-09T12:36:41.543Z,8.15
2023-01-09T12:39:26.603Z,8.07
2023-01-09T12:42:08.460Z,7.82
2023-01-09T12:44:55.444Z,7.22
2023-01-09T12:47:40.897Z,6.43
2023-01-09T12:50:08.003Z,6.57
2023-01-09T12:52:44.292Z,6.28
2023-01-09T12:55:27.864Z,6.40
2023-01-09T12:58:02.376Z,6.53
2023-01-09T13:00:31.863Z,4.82
2023-01-09T13:05:44.807Z,3.97
2023-01-09T13:08:15.599Z,3.67
2023-01-09T13:13:15.692Z,2.60
2023-01-09T13:15:44.596Z,3.08
2023-01-09T13:18:28.094Z,3.03
2023-01-09T13:20:56.727Z,2.33
2023-01-09T13:23:41.345Z,2.23
2023-01-09T13:26:15.995Z,1.65
2023-01-09T13:28:47.476Z,1.52
2023-01-09T13:31:13.971Z,1.52
2023-01-09T13:33:46.124Z,1.60
2023-01-09T13:36:39.376Z,1.55
2023-01-09T13:39:06.137Z,1.30
2023-01-09T13:41:51.332Z,0.90
2023-01-09T13:44:17.737Z,0.80
2023-01-09T13:46:45.898Z,0.90
2023-01-09T13:49:38.821Z,0.77
2023-01-09T13:52:06.682Z,0.60
2023-01-09T13:54:51.591Z,0.60
2023-01-09T13:57:18.735Z,0.77
2023-01-09T13:59:45.983Z,0.60
2023-01-09T14:02:32.926Z,0.70
2023-01-09T14:04:59.457Z,0.70
2023-01-09T14:07:27.366Z,1.02
2023-01-09T14:09:59.936Z,1.70
2023-01-09T14:12:27.593Z,0.90
2023-01-09T14:14:56.200Z,1.10
2023-01-09T14:17:34.899Z,0.80
2023-01-09T14:20:19.196Z,0.70
2023-01-09T14:22:56.579Z,0.65
2023-01-09T14:25:32.249Z,0.70
2023-01-09T14:28:08.812Z,0.80
2023-01-09T14:30:53.760Z,0.80
2023-01-09T14:33:20.574Z,0.98
2023-01-09T14:36:06.624Z,0.75
2023-01-09T14:38:47.678Z,0.82
2023-01-09T14:41:51.559Z,0.77
2023-01-09T14:44:32.451Z,1.00
2023-01-09T14:47:00.716Z,0.98
2023-01-09T14:49:39.308Z,0.95
2023-01-09T14:52:26.903Z,1.20
2023-01-09T14:54:56.697Z,1.27
2023-01-09T14:57:27.444Z,1.25
2023-01-09T15:00:01.745Z,1.30
2023-01-09T15:02:31.881Z,1.38
2023-01-09T15:05:00.917Z,1.38
2023-01-09T15:07:34.222Z,1.60
2023-01-09T15:10:02.265Z,1.50
2023-01-09T15:12:29.215Z,1.27
2023-01-09T15:14:57.994Z,1.10
2023-01-09T15:17:30.787Z,1.10
2023-01-09T15:19:59.349Z,1.70
2023-01-09T15:22:25.727Z,1.98
2023-01-09T15:24:52.543Z,2.08
2023-01-09T15:27:23.372Z,2.58
2023-01-09T15:29:50.641Z,2.33
2023-01-09T15:32:18.642Z,1.90
2023-01-09T15:34:45.837Z,2.10
2023-01-09T15:37:21.340Z,1.67
2023-01-09T15:39:48.135Z,1.80
2023-01-09T15:42:39.890Z,1.60
2023-01-09T15:45:06.673Z,1.30
2023-01-09T15:47:33.186Z,1.42
2023-01-09T15:50:00.517Z,1.20
2023-01-09T15:52:27.013Z,1.10
2023-01-09T15:54:53.513Z,1.20
2023-01-09T15:57:26.247Z,1.15
2023-01-09T15:59:53.542Z,1.50
2023-01-09T16:02:39.421Z,1.45
2023-01-09T16:05:12.568Z,1.42
2023-01-09T16:07:44.329Z,1.30
2023-01-09T16:10:21.240Z,1.40
2023-01-09T16:12:56.512Z,1.25
2023-01-09T16:15:23.352Z,1.20
2023-01-09T16:18:05.168Z,1.00
2023-01-09T16:20:31.784Z,1.00
2023-01-09T16:22:58.326Z,1.20
2023-01-09T16:25:24.991Z,1.48
2023-01-09T16:30:54.311Z,2.10
2023-01-09T16:33:22.582Z,1.55
2023-01-09T16:35:50.097Z,1.55
2023-01-09T16:38:16.898Z,1.60
2023-01-09T16:41:25.254Z,2.10
2023-01-09T16:43:51.959Z,2.25
2023-01-09T16:46:20.755Z,1.98
2023-01-09T16:48:47.735Z,2.00
2023-01-09T16:51:16.497Z,2.10
2023-01-09T16:53:43.596Z,2.38
2023-01-09T16:56:24.827Z,3.55
2023-01-09T16:58:53.498Z,3.53
2023-01-09T17:01:20.159Z,3.50
2023-01-09T17:03:48.033Z,3.33
2023-01-09T17:06:28.814Z,2.40
2023-01-09T17:08:55.670Z,1.95
2023-01-09T17:11:23.809Z,1.80
2023-01-09T17:13:50.297Z,1.80
2023-01-09T17:16:20.465Z,1.63
2023-01-09T17:18:46.994Z,2.38
2023-01-09T17:21:21.331Z,1.92
2023-01-09T17:23:48.117Z,1.80
2023-01-09T17:26:35.239Z,1.92
2023-01-09T17:29:01.770Z,1.85
2023-01-09T17:31:31.197Z,1.63
2023-01-09T17:33:58.169Z,2.53
2023-01-09T17:36:32.316Z,2.25
2023-01-09T17:38:59.430Z,2.10
2023-01-09T17:41:27.071Z,2.45
2023-01-09T17:43:53.524Z,2.40
2023-01-09T17:46:31.077Z,2.38
2023-01-09T17:48:57.956Z,3.05
2023-01-09T17:51:24.498Z,3.47
2023-01-09T17:53:51.255Z,3.30
2023-01-09T17:56:19.089Z,3.00
2023-01-09T17:58:48.325Z,3.65
2023-01-09T18:01:16.534Z,4.30
2023-01-09T18:03:43.820Z,3.72
2023-01-09T18:06:11.322Z,4.32
2023-01-09T18:08:38.557Z,4.20
2023-01-09T18:11:05.984Z,4.28
2023-01-09T18:13:33.694Z,4.30
2023-01-09T18:16:03.299Z,4.30
2023-01-09T18:18:30.474Z,4.88
2023-01-09T18:20:57.076Z,4.57
2023-01-09T18:23:23.684Z,4.35
2023-01-09T18:25:50.207Z,4.47
2023-01-09T18:28:16.998Z,3.70
2023-01-09T18:30:45.201Z,3.80
2023-01-09T18:33:15.147Z,4.32
2023-01-09T18:35:42.074Z,4.00
2023-01-09T18:38:09.136Z,3.88
2023-01-09T18:40:37.027Z,3.63
2023-01-09T18:43:07.925Z,3.70
2023-01-09T18:45:35.066Z,3.67
2023-01-09T18:48:01.532Z,3.35
2023-01-09T18:50:28.239Z,4.75
2023-01-09T18:52:55.443Z,3.75
2023-01-09T18:55:22.204Z,3.30
2023-01-09T18:57:48.973Z,3.75
2023-01-09T19:00:15.836Z,3.90
2023-01-09T19:02:42.365Z,4.30
2023-01-09T19:05:08.997Z,4.18
2023-01-09T19:07:36.062Z,4.13
2023-01-09T19:10:02.519Z,3.80
2023-01-09T19:12:29.000Z,3.67
2023-01-09T19:14:55.854Z,4.18
2023-01-09T19:17:22.363Z,3.90
2023-01-09T19:19:49.534Z,3.70
2023-01-09T19:22:16.090Z,4.00
2023-01-09T19:24:42.523Z,3.70
2023-01-09T19:27:09.052Z,4.05
2023-01-09T19:29:36.768Z,3.95
2023-01-09T19:32:04.644Z,3.72
2023-01-09T19:34:31.388Z,4.07
2023-01-09T19:36:57.992Z,4.82
2023-01-09T19:39:24.434Z,3.58
2023-01-09T19:41:50.981Z,4.10
2023-01-09T19:44:19.340Z,4.22
2023-01-09T19:46:45.844Z,5.00
2023-01-09T19:49:12.386Z,4.85
2023-01-09T19:51:39.404Z,4.30
2023-01-09T19:56:32.716Z,4.28
2023-01-09T19:59:00.447Z,4.72
2023-01-09T20:01:28.206Z,4.28
2023-01-09T20:03:56.649Z,4.88
2023-01-09T20:06:24.814Z,5.65
2023-01-09T20:08:55.869Z,5.80
2023-01-09T20:11:23.355Z,4.80
2023-01-09T20:13:50.083Z,5.53
2023-01-09T20:16:17.986Z,5.10
2023-01-09T20:18:44.498Z,5.00
2023-01-09T20:21:11.083Z,5.50
2023-01-09T20:23:38.084Z,5.95
2023-01-09T20:26:04.936Z,5.18
2023-01-09T20:28:31.561Z,5.70
2023-01-09T20:30:58.339Z,6.07
2023-01-09T20:33:25.491Z,5.10
2023-01-09T20:35:52.015Z,5.75
2023-01-09T20:38:18.511Z,5.57
2023-01-09T20:40:45.125Z,6.90
2023-01-09T20:43:12.796Z,7.13
2023-01-09T20:45:39.676Z,7.30
2023-01-09T20:48:06.771Z,7.00
2023-01-09T20:50:33.421Z,7.20
2023-01-09T20:52:59.975Z,7.47
2023-01-09T20:55:26.550Z,9.23
2023-01-09T20:57:53.102Z,7.90
2023-01-09T21:00:20.594Z,8.00
2023-01-09T21:02:47.168Z,7.85
2023-01-09T21:05:13.881Z,7.82
2023-01-09T21:07:40.375Z,7.70
2023-01-09T21:10:07.055Z,7.60
2023-01-09T21:12:36.768Z,6.80
2023-01-09T21:15:08.442Z,6.43
2023-01-09T21:17:35.808Z,7.07
2023-01-09T21:20:03.032Z,6.30
2023-01-09T21:22:31.756Z,5.70
2023-01-09T21:24:58.200Z,6.47
2023-01-09T21:27:26.590Z,5.85
2023-01-09T21:29:53.687Z,6.88
2023-01-09T21:32:20.205Z,5.93
2023-01-09T21:34:46.830Z,6.47
2023-01-09T21:37:13.609Z,6.35
2023-01-09T21:39:40.137Z,6.00
2023-01-09T21:42:25.036Z,6.10
2023-01-09T21:45:09.971Z,5.57
2023-01-09T21:47:36.458Z,5.22
2023-01-09T21:50:02.957Z,4.70
2023-01-09T21:52:30.370Z,4.65
2023-01-09T21:54:57.985Z,4.03
2023-01-09T21:57:24.588Z,5.85
2023-01-09T21:59:51.151Z,4.22
2023-01-09T22:02:17.961Z,4.13
2023-01-09T22:04:48.889Z,5.13
2023-01-09T22:07:15.905Z,4.18
2023-01-09T22:09:44.499Z,4.93
2023-01-09T22:12:12.525Z,4.57
2023-01-09T22:14:39.765Z,4.43
2023-01-09T22:17:06.352Z,4.80
2023-01-09T22:19:33.394Z,4.35
2023-01-09T22:22:00.119Z,4.82
2023-01-09T22:24:26.611Z,4.78
2023-01-09T22:26:53.144Z,4.95
2023-01-09T22:29:19.681Z,4.47
2023-01-09T22:31:46.293Z,4.70
2023-01-09T22:34:15.152Z,5.30
2023-01-09T22:36:41.964Z,5.90
2023-01-09T22:39:11.407Z,5.70
2023-01-09T22:41:37.893Z,5.47
2023-01-09T22:44:04.477Z,5.07
2023-01-09T22:46:31.689Z,5.38
2023-01-09T22:48:58.985Z,5.70
2023-01-09T22:51:25.458Z,6.07
2023-01-09T22:53:51.963Z,5.25
2023-01-09T22:56:19.598Z,6.00
2023-01-09T22:58:55.869Z,6.22
2023-01-09T23:01:22.859Z,6.45
2023-01-09T23:03:49.411Z,6.57
2023-01-09T23:06:20.365Z,6.38
2023-01-09T23:08:47.295Z,6.40
2023-01-09T23:11:15.417Z,6.82
2023-01-09T23:13:42.071Z,6.57
2023-01-09T23:16:08.650Z,6.22
2023-01-09T23:18:35.586Z,7.22
2023-01-09T23:21:05.924Z,6.88
2023-01-09T23:23:32.945Z,6.50
2023-01-09T23:26:00.980Z,7.28
2023-01-09T23:28:28.088Z,6.53
2023-01-09T23:30:54.876Z,7.05
2023-01-09T23:33:23.716Z,7.20
2023-01-09T23:35:50.204Z,6.70
2023-01-09T23:38:17.022Z,7.60
2023-01-09T23:40:43.553Z,6.60
2023-01-09T23:43:11.100Z,6.13
2023-01-09T23:45:37.555Z,6.20
2023-01-09T23:48:05.220Z,5.70
2023-01-09T23:50:31.804Z,7.05
2023-01-09T23:52:58.383Z,5.82
2023-01-09T23:55:25.843Z,5.82
2023-01-09T23:57:55.655Z,5.20
